createdAt,value
2022-09-09T00:01:33.889Z,17.55
2022-09-09T00:04:25.086Z,17.56
2022-09-09T00:07:07.393Z,17.55
2022-09-09T00:09:54.855Z,17.56
2022-09-09T00:12:35.791Z,17.56
2022-09-09T00:15:14.098Z,17.54
2022-09-09T00:18:10.925Z,17.53
2022-09-09T00:20:41.914Z,17.53
2022-09-09T00:23:29.585Z,17.53
2022-09-09T00:26:07.967Z,17.53
2022-09-09T00:28:44.924Z,17.52
2022-09-09T00:31:17.704Z,17.51
2022-09-09T00:33:47.506Z,17.51
2022-09-09T00:36:19.873Z,17.50
2022-09-09T00:38:56.442Z,17.49
2022-09-09T00:41:59.018Z,17.48
2022-09-09T00:44:36.458Z,17.47
2022-09-09T00:47:05.082Z,17.46
2022-09-09T00:49:39.471Z,17.45
2022-09-09T00:52:13.494Z,17.44
2022-09-09T00:54:53.814Z,17.43
2022-09-09T00:57:35.810Z,17.43
2022-09-09T01:00:06.801Z,17.41
2022-09-09T01:03:15.751Z,17.40
2022-09-09T01:06:39.959Z,17.38
2022-09-09T01:09:31.154Z,17.37
2022-09-09T01:12:04.686Z,17.36
2022-09-09T01:14:33.841Z,17.35
2022-09-09T01:17:26.999Z,17.34
2022-09-09T01:20:24.068Z,17.34
2022-09-09T01:23:00.974Z,17.34
2022-09-09T01:26:04.698Z,17.34
2022-09-09T01:28:36.779Z,17.33
2022-09-09T01:31:15.758Z,17.32
2022-09-09T01:33:48.481Z,17.31
2022-09-09T01:36:22.424Z,17.30
2022-09-09T01:38:53.629Z,17.29
2022-09-09T01:41:22.332Z,17.27
2022-09-09T01:44:10.298Z,17.26
2022-09-09T01:46:40.313Z,17.25
2022-09-09T01:49:15.077Z,17.24
2022-09-09T01:51:45.717Z,17.23
2022-09-09T01:54:15.782Z,17.23
2022-09-09T01:57:02.668Z,17.23
2022-09-09T01:59:49.778Z,17.22
2022-09-09T02:02:33.527Z,17.21
2022-09-09T02:05:38.667Z,17.19
2022-09-09T02:08:16.590Z,17.18
2022-09-09T02:11:07.095Z,17.16
2022-09-09T02:13:47.394Z,17.15
2022-09-09T02:16:25.711Z,17.14
2022-09-09T02:18:57.614Z,17.13
2022-09-09T02:21:36.330Z,17.12
2022-09-09T02:24:10.953Z,17.10
2022-09-09T02:26:46.287Z,17.09
2022-09-09T02:29:25.629Z,17.06
2022-09-09T02:31:56.690Z,17.05
2022-09-09T02:34:28.926Z,17.03
2022-09-09T02:37:01.007Z,17.01
2022-09-09T02:39:29.288Z,17.00
2022-09-09T02:41:57.598Z,16.99
2022-09-09T02:44:31.051Z,16.97
2022-09-09T02:47:29.750Z,16.95
2022-09-09T02:50:36.778Z,16.94
2022-09-09T02:53:29.390Z,16.91
2022-09-09T02:56:08.042Z,16.89
2022-09-09T02:58:37.932Z,16.87
2022-09-09T03:01:07.739Z,16.86
2022-09-09T03:03:36.287Z,16.84
2022-09-09T03:06:08.270Z,16.82
2022-09-09T03:08:36.948Z,16.80
2022-09-09T03:11:05.853Z,16.78
2022-09-09T03:13:36.575Z,16.76
2022-09-09T03:16:05.676Z,16.75
2022-09-09T03:18:36.708Z,16.72
2022-09-09T03:21:05.301Z,16.69
2022-09-09T03:23:33.627Z,16.67
2022-09-09T03:26:03.494Z,16.64
2022-09-09T03:28:40.145Z,16.60
2022-09-09T03:31:11.448Z,16.57
2022-09-09T03:33:44.806Z,16.53
2022-09-09T03:36:16.070Z,16.48
2022-09-09T03:38:44.506Z,16.43
2022-09-09T03:41:13.931Z,16.38
2022-09-09T03:43:43.005Z,16.34
2022-09-09T03:46:11.488Z,16.28
2022-09-09T03:48:39.810Z,16.23
2022-09-09T03:51:08.125Z,16.20
2022-09-09T03:53:36.914Z,16.15
2022-09-09T03:56:07.723Z,16.10
2022-09-09T03:58:37.067Z,16.04
2022-09-09T04:01:14.699Z,15.97
2022-09-09T04:03:45.815Z,15.92
2022-09-09T04:06:15.809Z,15.87
2022-09-09T04:08:46.218Z,15.83
2022-09-09T04:11:17.095Z,15.79
2022-09-09T04:13:45.680Z,15.73
2022-09-09T04:16:15.870Z,15.68
2022-09-09T04:18:45.216Z,15.63
2022-09-09T04:21:14.434Z,15.60
2022-09-09T04:23:43.133Z,15.56
2022-09-09T04:26:11.480Z,15.52
2022-09-09T04:28:39.975Z,15.51
2022-09-09T04:31:19.836Z,15.48
2022-09-09T04:33:48.667Z,15.45
2022-09-09T04:36:20.442Z,15.44
2022-09-09T04:38:50.333Z,15.41
2022-09-09T04:41:18.949Z,15.39
2022-09-09T04:43:49.570Z,15.39
2022-09-09T04:46:18.557Z,15.38
2022-09-09T04:48:47.082Z,15.39
2022-09-09T04:51:15.899Z,15.40
2022-09-09T04:53:46.350Z,15.43
2022-09-09T04:56:16.816Z,15.47
2022-09-09T04:58:52.181Z,15.53
2022-09-09T05:01:25.437Z,15.57
2022-09-09T05:03:55.708Z,15.60
2022-09-09T05:06:25.129Z,15.64
2022-09-09T05:08:57.405Z,15.68
2022-09-09T05:11:30.257Z,15.72
2022-09-09T05:14:21.598Z,15.76
2022-09-09T05:16:51.119Z,15.81
2022-09-09T05:19:21.018Z,15.85
2022-09-09T05:21:51.250Z,15.91
2022-09-09T05:24:24.387Z,15.95
2022-09-09T05:26:54.875Z,16.01
2022-09-09T05:29:23.108Z,16.07
2022-09-09T05:31:51.362Z,16.13
2022-09-09T05:34:21.895Z,16.19
2022-09-09T05:36:51.037Z,16.26
2022-09-09T05:39:19.586Z,16.33
2022-09-09T05:41:47.895Z,16.40
2022-09-09T05:44:16.289Z,16.47
2022-09-09T05:46:45.878Z,16.56
2022-09-09T05:49:16.817Z,16.63
2022-09-09T05:51:45.473Z,16.73
2022-09-09T05:54:16.663Z,16.85
2022-09-09T05:56:51.792Z,16.97
2022-09-09T05:59:20.958Z,17.09
2022-09-09T06:01:49.583Z,17.16
2022-09-09T06:04:28.350Z,17.26
2022-09-09T06:06:56.585Z,17.34
2022-09-09T06:09:25.098Z,17.42
2022-09-09T06:11:53.362Z,17.53
2022-09-09T06:14:23.026Z,17.61
2022-09-09T06:16:53.017Z,17.68
2022-09-09T06:19:27.582Z,17.79
2022-09-09T06:21:58.126Z,17.90
2022-09-09T06:24:26.546Z,17.96
2022-09-09T06:26:55.157Z,18.02
2022-09-09T06:29:26.447Z,18.13
2022-09-09T06:31:54.752Z,18.23
2022-09-09T06:34:24.823Z,18.28
2022-09-09T06:36:58.853Z,18.32
2022-09-09T06:39:28.207Z,18.36
2022-09-09T06:41:58.970Z,18.41
2022-09-09T06:44:56.122Z,18.45
2022-09-09T06:47:31.260Z,18.47
2022-09-09T06:50:00.010Z,18.45
2022-09-09T06:52:29.629Z,18.48
2022-09-09T06:54:59.937Z,18.54
2022-09-09T06:57:36.931Z,18.54
2022-09-09T07:00:09.301Z,18.60
2022-09-09T07:02:40.778Z,18.78
2022-09-09T07:05:10.096Z,18.94
2022-09-09T07:07:38.379Z,19.06
2022-09-09T07:10:07.033Z,19.08
2022-09-09T07:12:35.788Z,19.23
2022-09-09T07:15:05.295Z,19.34
2022-09-09T07:17:33.597Z,19.36
2022-09-09T07:20:04.943Z,19.45
2022-09-09T07:22:34.686Z,19.53
2022-09-09T07:25:04.682Z,19.64
2022-09-09T07:27:32.958Z,19.81
2022-09-09T07:30:01.186Z,19.92
2022-09-09T07:32:31.538Z,20.01
2022-09-09T07:34:59.786Z,20.11
2022-09-09T07:37:28.638Z,20.17
2022-09-09T07:39:57.134Z,20.24
2022-09-09T07:42:26.270Z,20.35
2022-09-09T07:44:56.225Z,20.41
2022-09-09T07:47:26.371Z,20.44
2022-09-09T07:49:54.621Z,20.51
2022-09-09T07:52:27.772Z,20.61
2022-09-09T07:54:58.417Z,20.77
2022-09-09T07:57:27.092Z,20.93
2022-09-09T07:59:57.115Z,20.98
2022-09-09T08:02:26.709Z,21.07
2022-09-09T08:04:54.931Z,21.19
2022-09-09T08:07:24.597Z,21.27
2022-09-09T08:09:56.786Z,21.37
2022-09-09T08:12:29.085Z,21.56
2022-09-09T08:14:57.896Z,21.63
2022-09-09T08:17:28.968Z,21.56
2022-09-09T08:19:58.433Z,21.50
2022-09-09T08:22:28.985Z,21.45
2022-09-09T08:24:57.450Z,21.46
2022-09-09T08:27:26.787Z,21.54
2022-09-09T08:29:55.377Z,21.62
2022-09-09T08:32:24.994Z,21.72
2022-09-09T08:34:54.618Z,21.83
2022-09-09T08:37:25.019Z,21.92
2022-09-09T08:39:55.346Z,21.90
2022-09-09T08:42:42.174Z,21.87
2022-09-09T08:45:47.723Z,21.75
2022-09-09T08:48:22.083Z,21.61
2022-09-09T08:50:53.266Z,21.61
2022-09-09T08:53:32.773Z,21.72
2022-09-09T08:56:09.698Z,21.86
2022-09-09T08:58:58.428Z,21.93
2022-09-09T09:01:46.153Z,22.09
2022-09-09T09:04:28.690Z,22.33
2022-09-09T09:07:18.765Z,22.54
2022-09-09T09:10:41.719Z,22.58
2022-09-09T09:13:18.261Z,22.55
2022-09-09T09:15:54.376Z,22.61
2022-09-09T09:18:22.891Z,22.66
2022-09-09T09:20:59.798Z,22.81
2022-09-09T09:23:42.537Z,23.08
2022-09-09T09:26:14.607Z,23.38
2022-09-09T09:28:44.356Z,23.66
2022-09-09T09:31:16.385Z,23.53
2022-09-09T09:33:51.588Z,23.47
2022-09-09T09:36:26.154Z,23.68
2022-09-09T09:41:50.000Z,24.35
2022-09-09T09:44:33.406Z,24.65
2022-09-09T09:47:18.215Z,24.96
2022-09-09T09:50:00.944Z,25.19
2022-09-09T09:52:33.389Z,25.54
2022-09-09T09:55:08.339Z,25.89
2022-09-09T09:57:37.754Z,26.20
2022-09-09T10:00:17.903Z,26.48
2022-09-09T10:02:53.032Z,26.75
2022-09-09T10:05:36.143Z,27.05
2022-09-09T10:08:10.466Z,27.34
2022-09-09T10:10:53.107Z,27.54
2022-09-09T10:13:45.999Z,27.67
2022-09-09T10:16:23.141Z,27.66
2022-09-09T10:19:18.001Z,27.76
2022-09-09T10:22:17.625Z,28.07
2022-09-09T10:25:00.748Z,28.34
2022-09-09T10:27:38.026Z,28.11
2022-09-09T10:30:18.517Z,27.81
2022-09-09T10:32:53.435Z,27.37
2022-09-09T10:35:27.595Z,27.19
2022-09-09T10:38:04.311Z,27.45
2022-09-09T10:40:49.886Z,27.75
2022-09-09T10:44:00.308Z,27.89
2022-09-09T10:46:32.020Z,28.24
2022-09-09T10:49:38.258Z,28.38
2022-09-09T10:52:29.813Z,27.98
2022-09-09T10:55:29.914Z,27.15
2022-09-09T10:58:01.672Z,26.60
2022-09-09T11:00:41.764Z,26.19
2022-09-09T11:03:21.175Z,26.31
2022-09-09T11:06:20.734Z,26.71
2022-09-09T11:08:53.779Z,27.22
2022-09-09T11:11:35.154Z,27.24
2022-09-09T11:14:13.626Z,26.99
2022-09-09T11:17:05.156Z,26.71
2022-09-09T11:19:41.563Z,26.40
2022-09-09T11:22:35.863Z,26.05
2022-09-09T11:25:35.363Z,25.79
2022-09-09T11:29:00.451Z,26.22
2022-09-09T11:31:53.935Z,26.80
2022-09-09T11:34:48.616Z,26.98
2022-09-09T11:37:17.178Z,26.95
2022-09-09T11:39:53.128Z,26.61
2022-09-09T11:42:25.566Z,26.20
2022-09-09T11:44:56.122Z,25.87
2022-09-09T11:47:32.925Z,25.56
2022-09-09T11:50:33.247Z,25.51
2022-09-09T11:53:13.659Z,25.56
2022-09-09T11:55:41.937Z,25.58
2022-09-09T11:58:12.829Z,25.87
2022-09-09T12:00:45.601Z,26.33
2022-09-09T12:03:41.343Z,26.67
2022-09-09T12:06:12.604Z,26.76
2022-09-09T12:08:46.567Z,26.83
2022-09-09T12:11:28.637Z,26.98
2022-09-09T12:14:00.733Z,27.06
2022-09-09T12:16:35.603Z,27.31
2022-09-09T12:19:22.071Z,27.46
2022-09-09T12:22:05.451Z,27.52
2022-09-09T12:24:48.347Z,27.59
2022-09-09T12:27:27.091Z,27.54
2022-09-09T12:30:16.649Z,27.58
2022-09-09T12:32:47.583Z,27.65
2022-09-09T12:35:28.072Z,27.75
2022-09-09T12:38:04.494Z,27.84
2022-09-09T12:40:36.467Z,28.09
2022-09-09T12:43:22.637Z,28.41
2022-09-09T12:45:58.793Z,28.79
2022-09-09T12:48:34.084Z,28.90
2022-09-09T12:51:03.026Z,28.85
2022-09-09T12:53:33.090Z,29.00
2022-09-09T12:56:11.286Z,29.14
2022-09-09T12:58:41.486Z,28.92
2022-09-09T13:01:23.200Z,28.81
2022-09-09T13:03:52.163Z,28.74
2022-09-09T13:06:29.099Z,28.57
2022-09-09T13:09:00.293Z,28.31
2022-09-09T13:11:43.347Z,28.11
2022-09-09T13:14:31.289Z,27.79
2022-09-09T13:17:01.697Z,27.52
2022-09-09T13:19:46.566Z,27.45
2022-09-09T13:22:14.768Z,27.38
2022-09-09T13:24:43.819Z,27.36
2022-09-09T13:27:29.292Z,27.24
2022-09-09T13:29:58.046Z,27.04
2022-09-09T13:32:28.097Z,27.04
2022-09-09T13:35:02.663Z,27.12
2022-09-09T13:37:42.370Z,27.05
2022-09-09T13:40:20.590Z,26.83
2022-09-09T13:42:53.691Z,26.69
2022-09-09T13:45:25.578Z,26.62
2022-09-09T13:47:56.674Z,26.50
2022-09-09T13:50:30.727Z,26.39
2022-09-09T13:52:59.836Z,26.32
2022-09-09T13:55:29.509Z,26.25
2022-09-09T13:58:03.828Z,26.09
2022-09-09T14:00:35.119Z,25.93
2022-09-09T14:03:03.598Z,25.75
2022-09-09T14:05:35.004Z,25.59
2022-09-09T14:08:07.698Z,25.48
2022-09-09T14:10:39.081Z,25.35
2022-09-09T14:13:07.325Z,25.26
2022-09-09T14:15:35.602Z,25.22
2022-09-09T14:18:04.015Z,25.19
2022-09-09T14:20:33.021Z,25.13
2022-09-09T14:23:03.515Z,25.07
2022-09-09T14:25:32.744Z,25.02
2022-09-09T14:28:01.539Z,24.95
2022-09-09T14:30:29.805Z,24.87
2022-09-09T14:32:58.296Z,24.78
2022-09-09T14:35:26.547Z,24.73
2022-09-09T14:37:54.757Z,24.63
2022-09-09T14:40:23.110Z,24.53
2022-09-09T14:42:51.335Z,24.46
2022-09-09T14:45:19.605Z,24.37
2022-09-09T14:47:48.500Z,24.28
2022-09-09T14:50:16.718Z,24.16
2022-09-09T14:52:45.411Z,24.03
2022-09-09T14:55:14.199Z,23.91
2022-09-09T14:57:43.531Z,23.80
2022-09-09T15:00:13.537Z,23.73
2022-09-09T15:02:41.884Z,23.65
2022-09-09T15:05:10.521Z,23.59
2022-09-09T15:07:39.353Z,23.57
2022-09-09T15:10:08.014Z,23.54
2022-09-09T15:12:36.337Z,23.53
2022-09-09T15:17:48.529Z,23.48
2022-09-09T15:20:17.798Z,23.46
2022-09-09T15:22:46.023Z,23.45
2022-09-09T15:25:14.453Z,23.43
2022-09-09T15:27:42.854Z,23.42
2022-09-09T15:30:11.879Z,23.41
2022-09-09T15:32:40.769Z,23.39
2022-09-09T15:35:09.081Z,23.36
2022-09-09T15:37:37.331Z,23.32
2022-09-09T15:40:06.121Z,23.27
2022-09-09T15:42:34.354Z,23.21
2022-09-09T15:45:02.521Z,23.13
2022-09-09T15:47:30.846Z,23.04
2022-09-09T15:49:58.994Z,22.95
2022-09-09T15:52:27.160Z,22.90
2022-09-09T15:54:55.923Z,22.85
2022-09-09T15:57:24.168Z,22.78
2022-09-09T15:59:52.358Z,22.72
2022-09-09T16:02:20.696Z,22.66
2022-09-09T16:04:48.963Z,22.58
2022-09-09T16:07:17.176Z,22.49
2022-09-09T16:09:45.513Z,22.43
2022-09-09T16:12:14.301Z,22.37
2022-09-09T16:14:42.985Z,22.30
2022-09-09T16:17:12.281Z,22.24
2022-09-09T16:19:40.757Z,22.14
2022-09-09T16:22:09.564Z,22.02
2022-09-09T16:24:37.877Z,21.92
2022-09-09T16:27:06.320Z,21.86
2022-09-09T16:29:34.647Z,21.77
2022-09-09T16:32:04.398Z,21.66
2022-09-09T16:34:34.652Z,21.55
2022-09-09T16:37:03.263Z,21.44
2022-09-09T16:39:31.789Z,21.33
2022-09-09T16:42:00.994Z,21.20
2022-09-09T16:44:29.346Z,21.06
2022-09-09T16:47:00.731Z,20.93
2022-09-09T16:49:30.029Z,20.80
2022-09-09T16:52:01.098Z,20.66
2022-09-09T16:54:30.184Z,20.53
2022-09-09T16:57:00.580Z,20.36
2022-09-09T16:59:29.530Z,20.22
2022-09-09T17:01:57.909Z,20.07
2022-09-09T17:04:31.991Z,19.91
2022-09-09T17:07:01.777Z,19.79
2022-09-09T17:09:30.455Z,19.67
2022-09-09T17:12:01.073Z,19.55
2022-09-09T17:14:32.270Z,19.42
2022-09-09T17:17:24.703Z,19.30
2022-09-09T17:19:52.287Z,19.18
2022-09-09T17:22:24.716Z,19.07
2022-09-09T17:24:53.273Z,18.97
2022-09-09T17:27:21.662Z,18.86
2022-09-09T17:29:49.999Z,18.76
2022-09-09T17:32:19.542Z,18.66
2022-09-09T17:34:47.790Z,18.56
2022-09-09T17:37:15.995Z,18.47
2022-09-09T17:39:44.394Z,18.37
2022-09-09T17:42:12.638Z,18.28
2022-09-09T17:44:42.870Z,18.20
2022-09-09T17:47:11.202Z,18.09
2022-09-09T17:49:39.567Z,18.00
2022-09-09T17:52:07.782Z,17.91
2022-09-09T17:54:36.702Z,17.82
2022-09-09T17:57:05.186Z,17.73
2022-09-09T17:59:33.403Z,17.63
2022-09-09T18:02:02.060Z,17.54
2022-09-09T18:04:30.478Z,17.46
2022-09-09T18:06:59.412Z,17.37
2022-09-09T18:09:28.206Z,17.30
2022-09-09T18:11:58.860Z,17.25
2022-09-09T18:14:31.323Z,17.21
2022-09-09T18:17:01.360Z,17.15
2022-09-09T18:19:33.029Z,17.08
2022-09-09T18:22:05.245Z,17.03
2022-09-09T18:24:34.179Z,16.98
2022-09-09T18:27:04.173Z,16.90
2022-09-09T18:29:33.367Z,16.85
2022-09-09T18:32:01.834Z,16.82
2022-09-09T18:34:31.025Z,16.79
2022-09-09T18:36:59.509Z,16.74
2022-09-09T18:39:29.824Z,16.70
2022-09-09T18:42:01.638Z,16.65
2022-09-09T18:44:33.949Z,16.61
2022-09-09T18:47:03.779Z,16.56
2022-09-09T18:49:33.815Z,16.51
2022-09-09T18:52:04.718Z,16.47
2022-09-09T18:54:34.454Z,16.41
2022-09-09T18:57:02.815Z,16.35
2022-09-09T18:59:31.524Z,16.30
2022-09-09T19:02:01.070Z,16.28
2022-09-09T19:04:33.075Z,16.25
2022-09-09T19:07:01.696Z,16.20
2022-09-09T19:09:33.842Z,16.17
2022-09-09T19:12:02.950Z,16.15
2022-09-09T19:14:31.579Z,16.12
2022-09-09T19:17:01.353Z,16.11
2022-09-09T19:19:32.527Z,16.09
2022-09-09T19:22:03.741Z,16.07
2022-09-09T19:24:33.727Z,16.04
2022-09-09T19:27:04.566Z,16.00
2022-09-09T19:29:39.601Z,15.97
2022-09-09T19:35:06.084Z,15.88
2022-09-09T19:37:34.929Z,15.86
2022-09-09T19:40:06.959Z,15.81
2022-09-09T19:42:35.283Z,15.78
2022-09-09T19:45:05.171Z,15.73
2022-09-09T19:47:34.153Z,15.70
2022-09-09T19:50:05.867Z,15.66
2022-09-09T19:52:35.305Z,15.62
2022-09-09T19:55:03.968Z,15.58
2022-09-09T19:57:32.490Z,15.57
2022-09-09T20:00:01.079Z,15.54
2022-09-09T20:02:29.656Z,15.52
2022-09-09T20:04:58.666Z,15.50
2022-09-09T20:07:27.113Z,15.47
2022-09-09T20:09:55.475Z,15.44
2022-09-09T20:12:23.850Z,15.41
2022-09-09T20:14:52.166Z,15.39
2022-09-09T20:17:21.523Z,15.38
2022-09-09T20:19:49.753Z,15.34
2022-09-09T20:22:17.991Z,15.29
2022-09-09T20:24:46.464Z,15.26
2022-09-09T20:27:14.715Z,15.23
2022-09-09T20:29:43.092Z,15.19
2022-09-09T20:32:12.359Z,15.17
2022-09-09T20:34:43.189Z,15.15
2022-09-09T20:37:18.027Z,15.12
2022-09-09T20:39:46.662Z,15.07
2022-09-09T20:42:15.482Z,15.02
2022-09-09T20:44:43.814Z,14.99
2022-09-09T20:47:13.183Z,14.94
2022-09-09T20:49:41.485Z,14.92
2022-09-09T20:52:11.753Z,14.89
2022-09-09T20:54:41.023Z,14.86
2022-09-09T20:57:09.641Z,14.81
2022-09-09T20:59:38.114Z,14.76
2022-09-09T21:02:06.865Z,14.71
2022-09-09T21:04:38.587Z,14.67
2022-09-09T21:07:07.679Z,14.63
2022-09-09T21:09:36.377Z,14.58
2022-09-09T21:12:04.802Z,14.55
2022-09-09T21:14:33.197Z,14.50
2022-09-09T21:17:03.359Z,14.45
2022-09-09T21:19:31.634Z,14.42
2022-09-09T21:22:00.397Z,14.38
2022-09-09T21:24:29.288Z,14.33
2022-09-09T21:26:57.530Z,14.29
2022-09-09T21:29:25.821Z,14.25
2022-09-09T21:31:55.858Z,14.20
2022-09-09T21:34:24.044Z,14.17
2022-09-09T21:36:52.274Z,14.15
2022-09-09T21:39:20.474Z,14.13
2022-09-09T21:41:48.738Z,14.09
2022-09-09T21:44:17.042Z,14.06
2022-09-09T21:46:45.338Z,14.02
2022-09-09T21:49:14.202Z,13.99
2022-09-09T21:51:42.542Z,13.98
2022-09-09T21:54:10.706Z,13.97
2022-09-09T21:56:39.663Z,13.96
2022-09-09T21:59:08.233Z,13.95
2022-09-09T22:01:36.680Z,13.94
2022-09-09T22:04:05.139Z,13.95
2022-09-09T22:06:33.979Z,13.95
2022-09-09T22:09:03.992Z,13.97
2022-09-09T22:11:32.201Z,13.96
2022-09-09T22:14:01.701Z,13.94
2022-09-09T22:16:29.975Z,13.94
2022-09-09T22:19:00.374Z,13.93
2022-09-09T22:21:30.839Z,13.92
2022-09-09T22:24:01.959Z,13.92
2022-09-09T22:26:33.335Z,13.91
2022-09-09T22:29:02.121Z,13.91
2022-09-09T22:31:31.570Z,13.91
2022-09-09T22:33:59.831Z,13.92
2022-09-09T22:36:28.141Z,13.90
2022-09-09T22:38:56.851Z,13.89
2022-09-09T22:41:25.368Z,13.88
2022-09-09T22:43:53.729Z,13.88
2022-09-09T22:46:23.881Z,13.89
2022-09-09T22:48:52.170Z,13.88
2022-09-09T22:51:20.553Z,13.89
2022-09-09T22:53:48.952Z,13.90
2022-09-09T22:56:19.846Z,13.92
2022-09-09T22:58:55.414Z,13.93
2022-09-09T23:01:25.486Z,13.94
2022-09-09T23:03:59.521Z,13.95
2022-09-09T23:06:29.029Z,13.96
2022-09-09T23:09:02.733Z,13.96
2022-09-09T23:11:34.794Z,13.95
2022-09-09T23:14:06.677Z,13.95
2022-09-09T23:16:39.807Z,13.96
2022-09-09T23:19:10.950Z,13.98
2022-09-09T23:21:40.622Z,13.98
2022-09-09T23:24:12.037Z,14.02
2022-09-09T23:26:41.881Z,14.07
2022-09-09T23:29:14.459Z,14.12
2022-09-09T23:31:45.077Z,14.16
2022-09-09T23:34:14.358Z,14.17
2022-09-09T23:36:42.818Z,14.17
2022-09-09T23:39:12.176Z,14.17
2022-09-09T23:41:41.190Z,14.17
2022-09-09T23:44:12.886Z,14.16
2022-09-09T23:46:41.788Z,14.21
2022-09-09T23:49:10.142Z,14.24
2022-09-09T23:51:38.466Z,14.26
2022-09-09T23:54:07.395Z,14.27
2022-09-09T23:56:39.338Z,14.27
2022-09-09T23:59:08.539Z,14.26
